sensor_id;sensor_type;location;lat;lon;timestamp;temperature;humidity
5334;DHT22;2689;50.954;7.116;2022-07-15T00:02:24;17.20;89.50
5334;DHT22;2689;50.954;7.116;2022-07-15T00:04:51;17.20;90.00
5334;DHT22;2689;50.954;7.116;2022-07-15T00:07:18;17.10;90.30
5334;DHT22;2689;50.954;7.116;2022-07-15T00:09:45;17.10;90.70
5334;DHT22;2689;50.954;7.116;2022-07-15T00:12:29;17.10;91.30
5334;DHT22;2689;50.954;7.116;2022-07-15T00:14:56;17.10;91.50
5334;DHT22;2689;50.954;7.116;2022-07-15T00:17:25;17.00;91.70
5334;DHT22;2689;50.954;7.116;2022-07-15T00:19:52;16.90;91.90
5334;DHT22;2689;50.954;7.116;2022-07-15T00:22:19;17.00;92.40
5334;DHT22;2689;50.954;7.116;2022-07-15T00:24:46;16.90;92.50
5334;DHT22;2689;50.954;7.116;2022-07-15T00:27:13;16.90;92.70
5334;DHT22;2689;50.954;7.116;2022-07-15T00:29:40;16.80;92.90
5334;DHT22;2689;50.954;7.116;2022-07-15T00:32:06;16.80;93.40
5334;DHT22;2689;50.954;7.116;2022-07-15T00:34:35;16.80;93.60
5334;DHT22;2689;50.954;7.116;2022-07-15T00:37:01;16.80;93.70
5334;DHT22;2689;50.954;7.116;2022-07-15T00:39:28;16.70;94.20
5334;DHT22;2689;50.954;7.116;2022-07-15T00:41:55;16.60;94.30
5334;DHT22;2689;50.954;7.116;2022-07-15T00:44:22;16.70;94.60
5334;DHT22;2689;50.954;7.116;2022-07-15T00:46:48;16.60;94.80
5334;DHT22;2689;50.954;7.116;2022-07-15T00:49:15;16.60;95.10
5334;DHT22;2689;50.954;7.116;2022-07-15T00:51:46;16.60;95.10
5334;DHT22;2689;50.954;7.116;2022-07-15T00:54:14;16.50;95.40
5334;DHT22;2689;50.954;7.116;2022-07-15T00:56:46;16.50;95.60
5334;DHT22;2689;50.954;7.116;2022-07-15T00:59:13;16.50;95.90
5334;DHT22;2689;50.954;7.116;2022-07-15T01:01:40;16.50;96.20
5334;DHT22;2689;50.954;7.116;2022-07-15T01:04:09;16.40;96.30
5334;DHT22;2689;50.954;7.116;2022-07-15T01:06:37;16.30;96.60
5334;DHT22;2689;50.954;7.116;2022-07-15T01:09:05;16.30;97.00
5334;DHT22;2689;50.954;7.116;2022-07-15T01:11:32;16.30;97.10
5334;DHT22;2689;50.954;7.116;2022-07-15T01:13:59;16.20;97.30
5334;DHT22;2689;50.954;7.116;2022-07-15T01:16:26;16.20;97.30
5334;DHT22;2689;50.954;7.116;2022-07-15T01:18:53;16.20;97.50
5334;DHT22;2689;50.954;7.116;2022-07-15T01:21:21;16.20;97.70
5334;DHT22;2689;50.954;7.116;2022-07-15T01:23:48;16.10;98.00
5334;DHT22;2689;50.954;7.116;2022-07-15T01:26:15;16.10;98.20
5334;DHT22;2689;50.954;7.116;2022-07-15T01:28:43;16.10;98.40
5334;DHT22;2689;50.954;7.116;2022-07-15T01:31:10;16.10;98.40
5334;DHT22;2689;50.954;7.116;2022-07-15T01:33:37;16.10;98.70
5334;DHT22;2689;50.954;7.116;2022-07-15T01:36:05;16.00;98.80
5334;DHT22;2689;50.954;7.116;2022-07-15T01:38:34;16.00;99.00
5334;DHT22;2689;50.954;7.116;2022-07-15T01:41:02;16.00;99.30
5334;DHT22;2689;50.954;7.116;2022-07-15T01:43:29;16.00;99.60
5334;DHT22;2689;50.954;7.116;2022-07-15T01:45:56;16.00;99.50
5334;DHT22;2689;50.954;7.116;2022-07-15T01:48:23;16.00;99.70
5334;DHT22;2689;50.954;7.116;2022-07-15T01:51:07;16.00;99.70
5334;DHT22;2689;50.954;7.116;2022-07-15T01:53:35;16.00;99.70
5334;DHT22;2689;50.954;7.116;2022-07-15T01:56:02;15.90;99.90
5334;DHT22;2689;50.954;7.116;2022-07-15T01:58:29;15.90;99.90
5334;DHT22;2689;50.954;7.116;2022-07-15T02:00:55;15.90;99.90
5334;DHT22;2689;50.954;7.116;2022-07-15T02:03:22;15.80;99.90
5334;DHT22;2689;50.954;7.116;2022-07-15T02:05:49;15.90;99.90
5334;DHT22;2689;50.954;7.116;2022-07-15T02:08:16;15.90;99.90
5334;DHT22;2689;50.954;7.116;2022-07-15T02:10:44;15.80;99.90
5334;DHT22;2689;50.954;7.116;2022-07-15T02:13:12;15.80;99.90
5334;DHT22;2689;50.954;7.116;2022-07-15T02:15:40;15.80;99.90
5334;DHT22;2689;50.954;7.116;2022-07-15T02:18:08;15.80;99.90
5334;DHT22;2689;50.954;7.116;2022-07-15T02:20:35;15.70;99.90
5334;DHT22;2689;50.954;7.116;2022-07-15T02:23:02;15.70;99.90
5334;DHT22;2689;50.954;7.116;2022-07-15T02:25:31;15.60;99.90
5334;DHT22;2689;50.954;7.116;2022-07-15T02:28:01;15.70;99.90
5334;DHT22;2689;50.954;7.116;2022-07-15T02:30:30;15.70;99.90
5334;DHT22;2689;50.954;7.116;2022-07-15T02:32:57;15.70;99.90
5334;DHT22;2689;50.954;7.116;2022-07-15T02:35:24;15.70;99.90
5334;DHT22;2689;50.954;7.116;2022-07-15T02:37:51;15.70;99.90
5334;DHT22;2689;50.954;7.116;2022-07-15T02:40:18;15.80;99.90
5334;DHT22;2689;50.954;7.116;2022-07-15T02:42:47;15.80;99.90
5334;DHT22;2689;50.954;7.116;2022-07-15T02:45:16;15.80;99.90
5334;DHT22;2689;50.954;7.116;2022-07-15T02:47:43;15.80;99.90
5334;DHT22;2689;50.954;7.116;2022-07-15T02:50:10;15.80;99.90
5334;DHT22;2689;50.954;7.116;2022-07-15T02:52:37;15.80;99.90
5334;DHT22;2689;50.954;7.116;2022-07-15T02:55:05;15.80;99.90
5334;DHT22;2689;50.954;7.116;2022-07-15T02:57:32;15.80;99.90
5334;DHT22;2689;50.954;7.116;2022-07-15T02:59:59;15.90;99.90
5334;DHT22;2689;50.954;7.116;2022-07-15T03:02:27;15.90;99.90
5334;DHT22;2689;50.954;7.116;2022-07-15T03:04:54;16.00;99.90
5334;DHT22;2689;50.954;7.116;2022-07-15T03:07:20;16.00;99.90
5334;DHT22;2689;50.954;7.116;2022-07-15T03:09:47;15.90;99.90
5334;DHT22;2689;50.954;7.116;2022-07-15T03:12:14;15.90;99.90
5334;DHT22;2689;50.954;7.116;2022-07-15T03:14:41;15.90;99.90
5334;DHT22;2689;50.954;7.116;2022-07-15T03:17:08;15.90;99.90
5334;DHT22;2689;50.954;7.116;2022-07-15T03:19:36;16.00;99.90
5334;DHT22;2689;50.954;7.116;2022-07-15T03:22:03;16.00;99.90
5334;DHT22;2689;50.954;7.116;2022-07-15T03:24:30;16.00;99.90
5334;DHT22;2689;50.954;7.116;2022-07-15T03:26:56;16.10;99.90
5334;DHT22;2689;50.954;7.116;2022-07-15T03:29:23;16.10;99.90
5334;DHT22;2689;50.954;7.116;2022-07-15T03:31:50;16.10;99.90
5334;DHT22;2689;50.954;7.116;2022-07-15T03:34:17;16.10;99.90
5334;DHT22;2689;50.954;7.116;2022-07-15T03:36:46;16.10;99.90
5334;DHT22;2689;50.954;7.116;2022-07-15T03:39:12;16.10;99.90
5334;DHT22;2689;50.954;7.116;2022-07-15T03:41:39;16.10;99.90
5334;DHT22;2689;50.954;7.116;2022-07-15T03:44:06;16.10;99.90
5334;DHT22;2689;50.954;7.116;2022-07-15T03:46:33;16.10;99.90
5334;DHT22;2689;50.954;7.116;2022-07-15T03:49:00;16.10;99.90
5334;DHT22;2689;50.954;7.116;2022-07-15T03:51:28;16.20;99.90
5334;DHT22;2689;50.954;7.116;2022-07-15T03:53:57;16.10;99.90
5334;DHT22;2689;50.954;7.116;2022-07-15T03:56:24;16.10;99.90
5334;DHT22;2689;50.954;7.116;2022-07-15T03:58:51;16.10;99.90
5334;DHT22;2689;50.954;7.116;2022-07-15T04:01:18;16.10;99.90
5334;DHT22;2689;50.954;7.116;2022-07-15T04:03:46;16.00;99.90
5334;DHT22;2689;50.954;7.116;2022-07-15T04:06:13;16.00;99.90
5334;DHT22;2689;50.954;7.116;2022-07-15T04:08:40;16.00;99.90
5334;DHT22;2689;50.954;7.116;2022-07-15T04:11:09;16.00;99.90
5334;DHT22;2689;50.954;7.116;2022-07-15T04:13:36;16.10;99.90
5334;DHT22;2689;50.954;7.116;2022-07-15T04:16:03;16.20;99.90
5334;DHT22;2689;50.954;7.116;2022-07-15T04:18:30;16.20;99.90
5334;DHT22;2689;50.954;7.116;2022-07-15T04:20:57;16.10;99.90
5334;DHT22;2689;50.954;7.116;2022-07-15T04:23:23;16.10;99.90
5334;DHT22;2689;50.954;7.116;2022-07-15T04:25:50;16.10;99.90
5334;DHT22;2689;50.954;7.116;2022-07-15T04:28:19;16.10;99.90
5334;DHT22;2689;50.954;7.116;2022-07-15T04:30:45;16.20;99.90
5334;DHT22;2689;50.954;7.116;2022-07-15T04:33:12;16.20;99.90
5334;DHT22;2689;50.954;7.116;2022-07-15T04:35:39;16.20;99.90
5334;DHT22;2689;50.954;7.116;2022-07-15T04:38:06;16.20;99.80
5334;DHT22;2689;50.954;7.116;2022-07-15T04:40:33;16.20;99.90
5334;DHT22;2689;50.954;7.116;2022-07-15T04:43:00;16.20;99.90
5334;DHT22;2689;50.954;7.116;2022-07-15T04:45:28;16.20;99.90
5334;DHT22;2689;50.954;7.116;2022-07-15T04:47:55;16.20;99.90
5334;DHT22;2689;50.954;7.116;2022-07-15T04:50:22;16.20;99.90
5334;DHT22;2689;50.954;7.116;2022-07-15T04:53:06;16.30;99.90
5334;DHT22;2689;50.954;7.116;2022-07-15T04:55:33;16.30;99.90
5334;DHT22;2689;50.954;7.116;2022-07-15T04:58:00;16.40;99.90
5334;DHT22;2689;50.954;7.116;2022-07-15T05:00:28;16.40;99.40
5334;DHT22;2689;50.954;7.116;2022-07-15T05:02:55;16.40;99.40
5334;DHT22;2689;50.954;7.116;2022-07-15T05:05:22;16.50;99.50
5334;DHT22;2689;50.954;7.116;2022-07-15T05:07:48;16.40;99.20
5334;DHT22;2689;50.954;7.116;2022-07-15T05:10:16;16.40;99.70
5334;DHT22;2689;50.954;7.116;2022-07-15T05:12:43;16.50;99.40
5334;DHT22;2689;50.954;7.116;2022-07-15T05:15:10;16.60;99.10
5334;DHT22;2689;50.954;7.116;2022-07-15T05:17:39;16.40;99.40
5334;DHT22;2689;50.954;7.116;2022-07-15T05:20:07;16.50;99.30
5334;DHT22;2689;50.954;7.116;2022-07-15T05:22:34;16.50;99.40
5334;DHT22;2689;50.954;7.116;2022-07-15T05:25:00;16.60;99.10
5334;DHT22;2689;50.954;7.116;2022-07-15T05:27:27;16.60;99.20
5334;DHT22;2689;50.954;7.116;2022-07-15T05:29:54;16.70;98.70
5334;DHT22;2689;50.954;7.116;2022-07-15T05:32:21;16.80;98.80
5334;DHT22;2689;50.954;7.116;2022-07-15T05:34:49;16.90;98.60
5334;DHT22;2689;50.954;7.116;2022-07-15T05:37:16;16.90;98.50
5334;DHT22;2689;50.954;7.116;2022-07-15T05:39:42;16.90;98.30
5334;DHT22;2689;50.954;7.116;2022-07-15T05:42:19;16.80;98.10
5334;DHT22;2689;50.954;7.116;2022-07-15T05:44:46;16.80;98.20
5334;DHT22;2689;50.954;7.116;2022-07-15T05:47:13;16.80;98.30
5334;DHT22;2689;50.954;7.116;2022-07-15T05:49:40;16.70;98.70
5334;DHT22;2689;50.954;7.116;2022-07-15T05:52:08;16.70;98.60
5334;DHT22;2689;50.954;7.116;2022-07-15T05:54:35;16.80;98.60
5334;DHT22;2689;50.954;7.116;2022-07-15T05:57:02;16.80;98.70
5334;DHT22;2689;50.954;7.116;2022-07-15T05:59:29;16.90;98.40
5334;DHT22;2689;50.954;7.116;2022-07-15T06:01:57;17.00;98.50
5334;DHT22;2689;50.954;7.116;2022-07-15T06:04:24;17.10;97.80
5334;DHT22;2689;50.954;7.116;2022-07-15T06:06:52;17.20;97.50
5334;DHT22;2689;50.954;7.116;2022-07-15T06:09:20;17.30;96.90
5334;DHT22;2689;50.954;7.116;2022-07-15T06:11:47;17.30;96.60
5334;DHT22;2689;50.954;7.116;2022-07-15T06:14:14;17.20;96.80
5334;DHT22;2689;50.954;7.116;2022-07-15T06:16:41;17.20;97.40
5334;DHT22;2689;50.954;7.116;2022-07-15T06:19:08;17.10;97.10
5334;DHT22;2689;50.954;7.116;2022-07-15T06:21:36;17.10;97.20
5334;DHT22;2689;50.954;7.116;2022-07-15T06:24:03;17.10;97.20
5334;DHT22;2689;50.954;7.116;2022-07-15T06:26:31;17.00;97.30
5334;DHT22;2689;50.954;7.116;2022-07-15T06:28:57;17.00;97.10
5334;DHT22;2689;50.954;7.116;2022-07-15T06:31:24;16.90;97.30
5334;DHT22;2689;50.954;7.116;2022-07-15T06:33:51;16.90;97.40
5334;DHT22;2689;50.954;7.116;2022-07-15T06:36:17;16.90;97.50
5334;DHT22;2689;50.954;7.116;2022-07-15T06:38:44;17.10;97.20
5334;DHT22;2689;50.954;7.116;2022-07-15T06:41:11;17.10;97.20
5334;DHT22;2689;50.954;7.116;2022-07-15T06:43:39;17.20;96.80
5334;DHT22;2689;50.954;7.116;2022-07-15T06:46:08;17.20;96.90
5334;DHT22;2689;50.954;7.116;2022-07-15T06:48:35;17.20;97.00
5334;DHT22;2689;50.954;7.116;2022-07-15T06:51:04;17.40;95.80
5334;DHT22;2689;50.954;7.116;2022-07-15T06:53:31;17.30;95.30
5334;DHT22;2689;50.954;7.116;2022-07-15T06:55:58;17.40;95.50
5334;DHT22;2689;50.954;7.116;2022-07-15T06:58:24;17.50;95.40
5334;DHT22;2689;50.954;7.116;2022-07-15T07:00:52;17.60;94.90
5334;DHT22;2689;50.954;7.116;2022-07-15T07:03:19;17.80;93.10
5334;DHT22;2689;50.954;7.116;2022-07-15T07:05:46;18.00;93.20
5334;DHT22;2689;50.954;7.116;2022-07-15T07:08:13;18.00;92.70
5334;DHT22;2689;50.954;7.116;2022-07-15T07:10:39;18.00;92.80
5334;DHT22;2689;50.954;7.116;2022-07-15T07:13:06;18.00;92.40
5334;DHT22;2689;50.954;7.116;2022-07-15T07:15:33;17.90;92.10
5334;DHT22;2689;50.954;7.116;2022-07-15T07:18:01;17.90;92.00
5334;DHT22;2689;50.954;7.116;2022-07-15T07:20:28;17.90;92.20
5334;DHT22;2689;50.954;7.116;2022-07-15T07:22:54;17.90;92.50
5334;DHT22;2689;50.954;7.116;2022-07-15T07:25:22;18.10;92.70
5334;DHT22;2689;50.954;7.116;2022-07-15T07:27:49;18.30;92.20
5334;DHT22;2689;50.954;7.116;2022-07-15T07:30:16;18.60;91.60
5334;DHT22;2689;50.954;7.116;2022-07-15T07:32:43;18.80;90.10
5334;DHT22;2689;50.954;7.116;2022-07-15T07:35:11;19.20;89.00
5334;DHT22;2689;50.954;7.116;2022-07-15T07:37:38;19.40;86.30
5334;DHT22;2689;50.954;7.116;2022-07-15T07:40:06;19.50;84.40
5334;DHT22;2689;50.954;7.116;2022-07-15T07:42:34;19.40;80.10
5334;DHT22;2689;50.954;7.116;2022-07-15T07:45:01;19.40;76.10
5334;DHT22;2689;50.954;7.116;2022-07-15T07:47:27;19.70;74.70
5334;DHT22;2689;50.954;7.116;2022-07-15T07:49:54;20.00;72.70
5334;DHT22;2689;50.954;7.116;2022-07-15T07:52:22;20.20;73.00
5334;DHT22;2689;50.954;7.116;2022-07-15T07:54:49;20.40;72.70
5334;DHT22;2689;50.954;7.116;2022-07-15T07:57:16;20.70;73.60
5334;DHT22;2689;50.954;7.116;2022-07-15T07:59:43;21.20;70.10
5334;DHT22;2689;50.954;7.116;2022-07-15T08:02:09;21.40;66.80
5334;DHT22;2689;50.954;7.116;2022-07-15T08:04:36;21.50;65.50
5334;DHT22;2689;50.954;7.116;2022-07-15T08:07:03;21.40;66.00
5334;DHT22;2689;50.954;7.116;2022-07-15T08:09:33;21.50;63.80
5334;DHT22;2689;50.954;7.116;2022-07-15T08:11:59;21.70;64.30
5334;DHT22;2689;50.954;7.116;2022-07-15T08:14:26;21.90;63.00
5334;DHT22;2689;50.954;7.116;2022-07-15T08:16:54;21.90;61.40
5334;DHT22;2689;50.954;7.116;2022-07-15T08:19:20;21.80;61.60
5334;DHT22;2689;50.954;7.116;2022-07-15T08:21:47;21.70;62.40
5334;DHT22;2689;50.954;7.116;2022-07-15T08:24:14;21.60;62.60
5334;DHT22;2689;50.954;7.116;2022-07-15T08:26:42;21.40;62.90
5334;DHT22;2689;50.954;7.116;2022-07-15T08:29:09;21.10;62.80
5334;DHT22;2689;50.954;7.116;2022-07-15T08:31:37;21.00;63.50
5334;DHT22;2689;50.954;7.116;2022-07-15T08:34:05;20.80;62.10
5334;DHT22;2689;50.954;7.116;2022-07-15T08:36:32;20.80;64.20
5334;DHT22;2689;50.954;7.116;2022-07-15T08:38:59;20.80;62.30
5334;DHT22;2689;50.954;7.116;2022-07-15T08:41:26;20.80;61.30
5334;DHT22;2689;50.954;7.116;2022-07-15T08:43:54;20.70;60.00
5334;DHT22;2689;50.954;7.116;2022-07-15T08:46:25;20.80;60.10
5334;DHT22;2689;50.954;7.116;2022-07-15T08:48:53;21.10;60.00
5334;DHT22;2689;50.954;7.116;2022-07-15T08:51:24;21.80;61.20
5334;DHT22;2689;50.954;7.116;2022-07-15T08:53:52;22.20;59.60
5334;DHT22;2689;50.954;7.116;2022-07-15T08:56:20;22.70;58.60
5334;DHT22;2689;50.954;7.116;2022-07-15T08:58:47;23.00;57.80
5334;DHT22;2689;50.954;7.116;2022-07-15T09:01:15;22.90;56.30
5334;DHT22;2689;50.954;7.116;2022-07-15T09:03:42;22.60;57.20
5334;DHT22;2689;50.954;7.116;2022-07-15T09:06:29;22.40;57.10
5334;DHT22;2689;50.954;7.116;2022-07-15T09:08:56;22.10;58.00
5334;DHT22;2689;50.954;7.116;2022-07-15T09:11:27;21.70;57.90
5334;DHT22;2689;50.954;7.116;2022-07-15T09:13:54;21.60;58.70
5334;DHT22;2689;50.954;7.116;2022-07-15T09:16:26;21.60;59.80
5334;DHT22;2689;50.954;7.116;2022-07-15T09:18:53;21.50;59.40
5334;DHT22;2689;50.954;7.116;2022-07-15T09:21:22;21.20;59.90
5334;DHT22;2689;50.954;7.116;2022-07-15T09:23:50;21.20;60.90
5334;DHT22;2689;50.954;7.116;2022-07-15T09:26:25;21.30;61.60
5334;DHT22;2689;50.954;7.116;2022-07-15T09:28:52;22.00;62.20
5334;DHT22;2689;50.954;7.116;2022-07-15T09:31:34;23.00;59.90
5334;DHT22;2689;50.954;7.116;2022-07-15T09:34:19;24.30;55.90
5334;DHT22;2689;50.954;7.116;2022-07-15T09:36:47;25.70;52.00
5334;DHT22;2689;50.954;7.116;2022-07-15T09:39:17;26.90;50.10
5334;DHT22;2689;50.954;7.116;2022-07-15T09:41:44;27.80;47.80
5334;DHT22;2689;50.954;7.116;2022-07-15T09:44:12;27.80;46.40
5334;DHT22;2689;50.954;7.116;2022-07-15T09:46:43;27.10;47.20
5334;DHT22;2689;50.954;7.116;2022-07-15T09:49:11;26.10;48.60
5334;DHT22;2689;50.954;7.116;2022-07-15T09:51:47;25.30;49.80
5334;DHT22;2689;50.954;7.116;2022-07-15T09:54:14;24.90;50.50
5334;DHT22;2689;50.954;7.116;2022-07-15T09:56:41;26.20;50.60
5334;DHT22;2689;50.954;7.116;2022-07-15T09:59:08;27.30;46.60
5334;DHT22;2689;50.954;7.116;2022-07-15T10:01:36;28.20;45.20
5334;DHT22;2689;50.954;7.116;2022-07-15T10:04:05;28.90;43.20
5334;DHT22;2689;50.954;7.116;2022-07-15T10:06:33;29.10;42.40
5334;DHT22;2689;50.954;7.116;2022-07-15T10:09:03;28.50;44.20
5334;DHT22;2689;50.954;7.116;2022-07-15T10:11:32;28.30;43.90
5334;DHT22;2689;50.954;7.116;2022-07-15T10:14:24;27.50;43.50
5334;DHT22;2689;50.954;7.116;2022-07-15T10:20:22;25.40;47.80
5334;DHT22;2689;50.954;7.116;2022-07-15T10:22:55;26.60;48.30
5334;DHT22;2689;50.954;7.116;2022-07-15T10:25:48;28.60;43.80
5334;DHT22;2689;50.954;7.116;2022-07-15T10:28:22;30.50;41.20
5334;DHT22;2689;50.954;7.116;2022-07-15T10:31:16;31.40;39.50
5334;DHT22;2689;50.954;7.116;2022-07-15T10:34:16;32.40;37.10
5334;DHT22;2689;50.954;7.116;2022-07-15T10:36:56;31.40;36.80
5334;DHT22;2689;50.954;7.116;2022-07-15T10:39:24;29.20;39.40
5334;DHT22;2689;50.954;7.116;2022-07-15T10:41:54;29.50;40.40
5334;DHT22;2689;50.954;7.116;2022-07-15T10:44:23;30.50;38.20
5334;DHT22;2689;50.954;7.116;2022-07-15T10:47:17;30.90;36.60
5334;DHT22;2689;50.954;7.116;2022-07-15T10:49:45;30.00;35.70
5334;DHT22;2689;50.954;7.116;2022-07-15T10:52:15;30.80;38.10
5334;DHT22;2689;50.954;7.116;2022-07-15T10:54:44;31.70;34.80
5334;DHT22;2689;50.954;7.116;2022-07-15T10:57:12;31.50;32.70
5334;DHT22;2689;50.954;7.116;2022-07-15T10:59:51;31.70;33.50
5334;DHT22;2689;50.954;7.116;2022-07-15T11:02:20;31.10;33.60
5334;DHT22;2689;50.954;7.116;2022-07-15T11:04:48;31.50;33.90
5334;DHT22;2689;50.954;7.116;2022-07-15T11:07:34;32.20;34.50
5334;DHT22;2689;50.954;7.116;2022-07-15T11:10:18;31.80;32.60
5334;DHT22;2689;50.954;7.116;2022-07-15T11:12:57;30.30;34.20
5334;DHT22;2689;50.954;7.116;2022-07-15T11:15:25;28.30;36.90
5334;DHT22;2689;50.954;7.116;2022-07-15T11:17:54;27.10;39.80
5334;DHT22;2689;50.954;7.116;2022-07-15T11:20:25;26.90;40.70
5334;DHT22;2689;50.954;7.116;2022-07-15T11:22:55;26.90;41.80
5334;DHT22;2689;50.954;7.116;2022-07-15T11:25:24;26.80;41.20
5334;DHT22;2689;50.954;7.116;2022-07-15T11:27:55;26.50;41.60
5334;DHT22;2689;50.954;7.116;2022-07-15T11:30:24;25.90;43.40
5334;DHT22;2689;50.954;7.116;2022-07-15T11:32:55;26.40;43.90
5334;DHT22;2689;50.954;7.116;2022-07-15T11:35:23;26.90;42.90
5334;DHT22;2689;50.954;7.116;2022-07-15T11:38:02;27.50;41.80
5334;DHT22;2689;50.954;7.116;2022-07-15T11:40:31;26.80;41.80
5334;DHT22;2689;50.954;7.116;2022-07-15T11:43:18;26.60;43.40
5334;DHT22;2689;50.954;7.116;2022-07-15T11:46:03;26.60;43.60
5334;DHT22;2689;50.954;7.116;2022-07-15T11:48:35;26.50;44.20
5334;DHT22;2689;50.954;7.116;2022-07-15T11:51:03;27.30;42.90
5334;DHT22;2689;50.954;7.116;2022-07-15T11:53:36;28.40;41.20
5334;DHT22;2689;50.954;7.116;2022-07-15T11:56:04;29.20;39.40
5334;DHT22;2689;50.954;7.116;2022-07-15T11:58:34;28.60;38.90
5334;DHT22;2689;50.954;7.116;2022-07-15T12:01:04;28.70;39.90
5334;DHT22;2689;50.954;7.116;2022-07-15T12:03:36;29.00;38.30
5334;DHT22;2689;50.954;7.116;2022-07-15T12:06:05;29.30;37.60
5334;DHT22;2689;50.954;7.116;2022-07-15T12:08:38;29.40;37.20
5334;DHT22;2689;50.954;7.116;2022-07-15T12:11:22;29.60;37.60
5334;DHT22;2689;50.954;7.116;2022-07-15T12:13:52;30.10;36.00
5334;DHT22;2689;50.954;7.116;2022-07-15T12:16:24;30.50;36.60
5334;DHT22;2689;50.954;7.116;2022-07-15T12:18:53;31.60;34.50
5334;DHT22;2689;50.954;7.116;2022-07-15T12:21:20;31.80;35.00
5334;DHT22;2689;50.954;7.116;2022-07-15T12:24:04;31.10;33.40
5334;DHT22;2689;50.954;7.116;2022-07-15T12:26:33;29.80;35.20
5334;DHT22;2689;50.954;7.116;2022-07-15T12:29:02;28.80;37.40
5334;DHT22;2689;50.954;7.116;2022-07-15T12:31:31;27.90;38.00
5334;DHT22;2689;50.954;7.116;2022-07-15T12:33:58;27.20;40.20
5334;DHT22;2689;50.954;7.116;2022-07-15T12:36:26;26.50;41.40
5334;DHT22;2689;50.954;7.116;2022-07-15T12:39:18;25.90;42.80
5334;DHT22;2689;50.954;7.116;2022-07-15T12:41:57;25.90;44.40
5334;DHT22;2689;50.954;7.116;2022-07-15T12:44:25;26.90;42.70
5334;DHT22;2689;50.954;7.116;2022-07-15T12:46:57;28.30;41.40
5334;DHT22;2689;50.954;7.116;2022-07-15T12:49:37;28.90;38.50
5334;DHT22;2689;50.954;7.116;2022-07-15T12:52:22;29.10;37.90
5334;DHT22;2689;50.954;7.116;2022-07-15T12:54:53;29.60;37.70
5334;DHT22;2689;50.954;7.116;2022-07-15T12:57:32;30.40;37.70
5334;DHT22;2689;50.954;7.116;2022-07-15T13:00:00;30.90;34.20
5334;DHT22;2689;50.954;7.116;2022-07-15T13:02:30;30.30;34.20
5334;DHT22;2689;50.954;7.116;2022-07-15T13:04:57;29.30;36.10
5334;DHT22;2689;50.954;7.116;2022-07-15T13:07:24;28.10;36.80
5334;DHT22;2689;50.954;7.116;2022-07-15T13:09:52;27.90;38.90
5334;DHT22;2689;50.954;7.116;2022-07-15T13:12:19;27.40;40.00
5334;DHT22;2689;50.954;7.116;2022-07-15T13:14:45;27.00;40.80
5334;DHT22;2689;50.954;7.116;2022-07-15T13:17:12;26.60;41.30
5334;DHT22;2689;50.954;7.116;2022-07-15T13:19:39;26.30;41.70
5334;DHT22;2689;50.954;7.116;2022-07-15T13:22:06;25.80;42.80
5334;DHT22;2689;50.954;7.116;2022-07-15T13:24:32;25.70;44.00
5334;DHT22;2689;50.954;7.116;2022-07-15T13:27:00;25.60;43.40
5334;DHT22;2689;50.954;7.116;2022-07-15T13:29:27;25.50;44.00
5334;DHT22;2689;50.954;7.116;2022-07-15T13:31:54;25.10;44.60
5334;DHT22;2689;50.954;7.116;2022-07-15T13:34:20;25.00;46.60
5334;DHT22;2689;50.954;7.116;2022-07-15T13:36:47;25.80;45.40
5334;DHT22;2689;50.954;7.116;2022-07-15T13:39:14;26.80;44.20
5334;DHT22;2689;50.954;7.116;2022-07-15T13:41:41;28.00;42.20
5334;DHT22;2689;50.954;7.116;2022-07-15T13:44:11;28.90;40.20
5334;DHT22;2689;50.954;7.116;2022-07-15T13:46:38;29.70;38.40
5334;DHT22;2689;50.954;7.116;2022-07-15T13:49:04;30.10;36.50
5334;DHT22;2689;50.954;7.116;2022-07-15T13:51:31;30.10;36.50
5334;DHT22;2689;50.954;7.116;2022-07-15T13:53:57;29.50;36.20
5334;DHT22;2689;50.954;7.116;2022-07-15T13:56:25;29.20;37.50
5334;DHT22;2689;50.954;7.116;2022-07-15T13:58:52;28.70;38.60
5334;DHT22;2689;50.954;7.116;2022-07-15T14:01:25;28.60;39.70
5334;DHT22;2689;50.954;7.116;2022-07-15T14:03:53;28.80;38.60
5334;DHT22;2689;50.954;7.116;2022-07-15T14:06:20;28.70;38.30
5334;DHT22;2689;50.954;7.116;2022-07-15T14:08:47;28.80;38.10
5334;DHT22;2689;50.954;7.116;2022-07-15T14:11:13;28.70;38.60
5334;DHT22;2689;50.954;7.116;2022-07-15T14:13:40;29.00;38.70
5334;DHT22;2689;50.954;7.116;2022-07-15T14:16:07;28.80;38.60
5334;DHT22;2689;50.954;7.116;2022-07-15T14:18:35;29.00;38.60
5334;DHT22;2689;50.954;7.116;2022-07-15T14:21:13;28.60;37.30
5334;DHT22;2689;50.954;7.116;2022-07-15T14:23:41;28.00;40.40
5334;DHT22;2689;50.954;7.116;2022-07-15T14:26:08;27.60;41.40
5334;DHT22;2689;50.954;7.116;2022-07-15T14:28:35;27.40;42.20
5334;DHT22;2689;50.954;7.116;2022-07-15T14:31:02;27.20;42.20
5334;DHT22;2689;50.954;7.116;2022-07-15T14:33:29;26.80;42.60
5334;DHT22;2689;50.954;7.116;2022-07-15T14:35:57;26.50;43.10
5334;DHT22;2689;50.954;7.116;2022-07-15T14:38:23;26.20;44.50
5334;DHT22;2689;50.954;7.116;2022-07-15T14:40:50;26.00;44.30
5334;DHT22;2689;50.954;7.116;2022-07-15T14:43:17;25.80;43.50
5334;DHT22;2689;50.954;7.116;2022-07-15T14:45:44;25.60;43.50
5334;DHT22;2689;50.954;7.116;2022-07-15T14:48:10;25.30;44.30
5334;DHT22;2689;50.954;7.116;2022-07-15T14:50:37;25.30;45.50
5334;DHT22;2689;50.954;7.116;2022-07-15T14:53:05;25.30;46.30
5334;DHT22;2689;50.954;7.116;2022-07-15T14:55:32;25.30;46.10
5334;DHT22;2689;50.954;7.116;2022-07-15T14:57:59;25.40;46.90
5334;DHT22;2689;50.954;7.116;2022-07-15T15:00:26;25.50;46.30
5334;DHT22;2689;50.954;7.116;2022-07-15T15:02:53;25.60;46.30
5334;DHT22;2689;50.954;7.116;2022-07-15T15:05:19;25.70;44.80
5334;DHT22;2689;50.954;7.116;2022-07-15T15:07:46;25.70;45.30
5334;DHT22;2689;50.954;7.116;2022-07-15T15:10:14;25.60;45.60
5334;DHT22;2689;50.954;7.116;2022-07-15T15:12:41;25.40;46.00
5334;DHT22;2689;50.954;7.116;2022-07-15T15:15:08;25.20;45.40
5334;DHT22;2689;50.954;7.116;2022-07-15T15:17:35;25.10;45.30
5334;DHT22;2689;50.954;7.116;2022-07-15T15:20:02;24.90;46.20
5334;DHT22;2689;50.954;7.116;2022-07-15T15:22:32;24.80;46.70
5334;DHT22;2689;50.954;7.116;2022-07-15T15:24:58;24.90;47.30
5334;DHT22;2689;50.954;7.116;2022-07-15T15:27:26;24.90;47.40
5334;DHT22;2689;50.954;7.116;2022-07-15T15:29:54;25.10;46.90
5334;DHT22;2689;50.954;7.116;2022-07-15T15:32:20;25.10;46.50
5334;DHT22;2689;50.954;7.116;2022-07-15T15:34:47;25.20;46.80
5334;DHT22;2689;50.954;7.116;2022-07-15T15:37:15;25.30;47.00
5334;DHT22;2689;50.954;7.116;2022-07-15T15:39:42;25.20;45.60
5334;DHT22;2689;50.954;7.116;2022-07-15T15:42:09;24.90;45.60
5334;DHT22;2689;50.954;7.116;2022-07-15T15:44:37;25.00;46.00
5334;DHT22;2689;50.954;7.116;2022-07-15T15:47:04;25.20;46.70
5334;DHT22;2689;50.954;7.116;2022-07-15T15:49:31;25.50;46.10
5334;DHT22;2689;50.954;7.116;2022-07-15T15:51:58;25.80;44.40
5334;DHT22;2689;50.954;7.116;2022-07-15T15:54:25;26.00;44.00
5334;DHT22;2689;50.954;7.116;2022-07-15T15:56:52;26.00;43.70
5334;DHT22;2689;50.954;7.116;2022-07-15T15:59:19;26.00;43.80
5334;DHT22;2689;50.954;7.116;2022-07-15T16:01:47;26.20;44.00
5334;DHT22;2689;50.954;7.116;2022-07-15T16:04:13;26.40;44.40
5334;DHT22;2689;50.954;7.116;2022-07-15T16:06:40;26.50;43.90
5334;DHT22;2689;50.954;7.116;2022-07-15T16:09:07;26.30;41.70
5334;DHT22;2689;50.954;7.116;2022-07-15T16:11:34;26.30;43.30
5334;DHT22;2689;50.954;7.116;2022-07-15T16:14:00;26.20;43.80
5334;DHT22;2689;50.954;7.116;2022-07-15T16:16:27;26.20;44.10